sensor_id;sensor_type;location;lat;lon;timestamp;pressure;altitude;pressure_sealevel;temperature;humidity
72409;BME280;60402;48.082;11.628;2023-02-14T00:01:49;97143.44;;;-0.94;100.00
72409;BME280;60402;48.082;11.628;2023-02-14T00:04:16;97138.38;;;-0.92;100.00
72409;BME280;60402;48.082;11.628;2023-02-14T00:06:42;97132.00;;;-0.92;100.00
72409;BME280;60402;48.082;11.628;2023-02-14T00:09:11;97153.06;;;-1.00;100.00
72409;BME280;60402;48.082;11.628;2023-02-14T00:11:37;97154.72;;;-1.08;100.00
72409;BME280;60402;48.082;11.628;2023-02-14T00:14:03;97156.69;;;-1.17;100.00
72409;BME280;60402;48.082;11.628;2023-02-14T00:16:48;97149.81;;;-1.02;100.00
72409;BME280;60402;48.082;11.628;2023-02-14T00:19:15;97145.22;;;-0.89;100.00
72409;BME280;60402;48.082;11.628;2023-02-14T00:21:41;97151.44;;;-1.01;100.00
72409;BME280;60402;48.082;11.628;2023-02-14T00:24:13;97149.19;;;-1.34;100.00
72409;BME280;60402;48.082;11.628;2023-02-14T00:26:39;97150.00;;;-1.16;100.00
72409;BME280;60402;48.082;11.628;2023-02-14T00:29:10;97133.84;;;-1.40;100.00
72409;BME280;60402;48.082;11.628;2023-02-14T00:31:35;97147.03;;;-1.37;100.00
72409;BME280;60402;48.082;11.628;2023-02-14T00:34:02;97146.56;;;-1.47;100.00
72409;BME280;60402;48.082;11.628;2023-02-14T00:36:27;97146.09;;;-1.41;100.00
72409;BME280;60402;48.082;11.628;2023-02-14T00:38:53;97152.78;;;-1.50;100.00
72409;BME280;60402;48.082;11.628;2023-02-14T00:41:18;97144.91;;;-1.66;100.00
72409;BME280;60402;48.082;11.628;2023-02-14T00:43:48;97125.38;;;-1.78;100.00
72409;BME280;60402;48.082;11.628;2023-02-14T00:46:15;97127.31;;;-1.70;100.00
72409;BME280;60402;48.082;11.628;2023-02-14T00:48:40;97135.00;;;-1.58;100.00
72409;BME280;60402;48.082;11.628;2023-02-14T00:51:06;97152.44;;;-1.40;100.00
72409;BME280;60402;48.082;11.628;2023-02-14T00:53:32;97143.78;;;-1.39;100.00
72409;BME280;60402;48.082;11.628;2023-02-14T00:55:57;97139.41;;;-1.48;100.00
72409;BME280;60402;48.082;11.628;2023-02-14T00:58:22;97163.03;;;-1.34;100.00
72409;BME280;60402;48.082;11.628;2023-02-14T01:00:48;97161.25;;;-1.47;100.00
72409;BME280;60402;48.082;11.628;2023-02-14T01:03:13;97156.03;;;-1.40;100.00
72409;BME280;60402;48.082;11.628;2023-02-14T01:05:38;97156.50;;;-1.38;100.00
72409;BME280;60402;48.082;11.628;2023-02-14T01:08:04;97159.47;;;-1.34;100.00
72409;BME280;60402;48.082;11.628;2023-02-14T01:10:29;97149.00;;;-1.46;100.00
72409;BME280;60402;48.082;11.628;2023-02-14T01:12:55;97146.41;;;-1.51;100.00
72409;BME280;60402;48.082;11.628;2023-02-14T01:15:20;97135.78;;;-1.66;100.00
72409;BME280;60402;48.082;11.628;2023-02-14T01:17:46;97145.59;;;-1.51;100.00
72409;BME280;60402;48.082;11.628;2023-02-14T01:20:11;97149.16;;;-1.51;100.00
72409;BME280;60402;48.082;11.628;2023-02-14T01:22:37;97143.28;;;-1.15;100.00
72409;BME280;60402;48.082;11.628;2023-02-14T01:25:03;97149.19;;;-1.16;100.00
72409;BME280;60402;48.082;11.628;2023-02-14T01:27:29;97138.88;;;-1.07;100.00
72409;BME280;60402;48.082;11.628;2023-02-14T01:29:54;97143.91;;;-1.00;100.00
72409;BME280;60402;48.082;11.628;2023-02-14T01:32:19;97141.16;;;-1.09;100.00
72409;BME280;60402;48.082;11.628;2023-02-14T01:34:45;97142.00;;;-1.26;100.00
72409;BME280;60402;48.082;11.628;2023-02-14T01:37:12;97148.84;;;-1.06;100.00
72409;BME280;60402;48.082;11.628;2023-02-14T01:39:37;97146.56;;;-1.39;100.00
72409;BME280;60402;48.082;11.628;2023-02-14T01:42:02;97151.94;;;-1.68;100.00
72409;BME280;60402;48.082;11.628;2023-02-14T01:46:54;97166.47;;;-1.63;100.00
72409;BME280;60402;48.082;11.628;2023-02-14T01:49:26;97146.38;;;-1.77;100.00
72409;BME280;60402;48.082;11.628;2023-02-14T01:52:13;97162.38;;;-1.57;100.00
72409;BME280;60402;48.082;11.628;2023-02-14T01:54:45;97165.81;;;-1.68;100.00
72409;BME280;60402;48.082;11.628;2023-02-14T01:57:15;97146.50;;;-1.99;100.00
72409;BME280;60402;48.082;11.628;2023-02-14T01:59:48;97149.13;;;-1.94;100.00
72409;BME280;60402;48.082;11.628;2023-02-14T02:02:15;97158.31;;;-1.59;100.00
72409;BME280;60402;48.082;11.628;2023-02-14T02:04:47;97158.13;;;-1.63;100.00
72409;BME280;60402;48.082;11.628;2023-02-14T02:07:18;97154.56;;;-1.63;100.00
72409;BME280;60402;48.082;11.628;2023-02-14T02:09:57;97165.59;;;-1.81;100.00
72409;BME280;60402;48.082;11.628;2023-02-14T02:12:23;97157.97;;;-1.58;100.00
72409;BME280;60402;48.082;11.628;2023-02-14T02:14:52;97159.59;;;-1.74;100.00
72409;BME280;60402;48.082;11.628;2023-02-14T02:17:24;97164.31;;;-1.66;100.00
72409;BME280;60402;48.082;11.628;2023-02-14T02:29:14;97128.59;;;-1.93;100.00
72409;BME280;60402;48.082;11.628;2023-02-14T02:35:09;97150.31;;;-1.69;100.00
72409;BME280;60402;48.082;11.628;2023-02-14T02:48:05;97128.47;;;-1.45;100.00
72409;BME280;60402;48.082;11.628;2023-02-14T02:50:40;97126.19;;;-1.34;100.00
72409;BME280;60402;48.082;11.628;2023-02-14T02:56:17;97120.00;;;-1.48;100.00
72409;BME280;60402;48.082;11.628;2023-02-14T02:59:18;97116.72;;;-1.59;100.00
72409;BME280;60402;48.082;11.628;2023-02-14T03:01:50;97136.25;;;-1.90;100.00
72409;BME280;60402;48.082;11.628;2023-02-14T03:04:19;97139.09;;;-2.21;100.00
72409;BME280;60402;48.082;11.628;2023-02-14T03:07:04;97132.78;;;-2.13;100.00
72409;BME280;60402;48.082;11.628;2023-02-14T03:09:57;97122.09;;;-1.80;100.00
72409;BME280;60402;48.082;11.628;2023-02-14T03:15:26;97120.94;;;-1.70;100.00
72409;BME280;60402;48.082;11.628;2023-02-14T03:18:20;97129.84;;;-2.17;100.00
72409;BME280;60402;48.082;11.628;2023-02-14T03:23:38;97130.84;;;-2.04;100.00
72409;BME280;60402;48.082;11.628;2023-02-14T03:26:16;97136.44;;;-1.78;100.00
72409;BME280;60402;48.082;11.628;2023-02-14T03:28:52;97136.75;;;-1.71;100.00
72409;BME280;60402;48.082;11.628;2023-02-14T03:31:36;97112.50;;;-1.74;100.00
72409;BME280;60402;48.082;11.628;2023-02-14T03:34:14;97101.97;;;-2.29;100.00
72409;BME280;60402;48.082;11.628;2023-02-14T03:36:51;97122.72;;;-2.00;100.00
72409;BME280;60402;48.082;11.628;2023-02-14T03:41:56;97135.88;;;-2.15;100.00
72409;BME280;60402;48.082;11.628;2023-02-14T03:44:26;97128.44;;;-2.45;100.00
72409;BME280;60402;48.082;11.628;2023-02-14T03:47:03;97128.19;;;-2.26;100.00
72409;BME280;60402;48.082;11.628;2023-02-14T03:49:40;97135.38;;;-2.17;100.00
72409;BME280;60402;48.082;11.628;2023-02-14T03:52:08;97145.16;;;-2.19;100.00
72409;BME280;60402;48.082;11.628;2023-02-14T03:54:35;97142.03;;;-2.26;100.00
72409;BME280;60402;48.082;11.628;2023-02-14T03:57:10;97143.63;;;-2.43;100.00
72409;BME280;60402;48.082;11.628;2023-02-14T03:59:37;97118.00;;;-2.57;100.00
72409;BME280;60402;48.082;11.628;2023-02-14T04:02:14;97137.56;;;-2.45;100.00
72409;BME280;60402;48.082;11.628;2023-02-14T04:04:47;97131.19;;;-2.54;100.00
72409;BME280;60402;48.082;11.628;2023-02-14T04:07:16;97144.56;;;-2.47;100.00
72409;BME280;60402;48.082;11.628;2023-02-14T04:09:41;97138.91;;;-2.34;100.00
72409;BME280;60402;48.082;11.628;2023-02-14T04:12:07;97129.16;;;-2.22;100.00
72409;BME280;60402;48.082;11.628;2023-02-14T04:14:33;97131.31;;;-2.59;100.00
72409;BME280;60402;48.082;11.628;2023-02-14T04:16:58;97122.59;;;-2.84;100.00
72409;BME280;60402;48.082;11.628;2023-02-14T04:19:42;97134.56;;;-2.66;100.00
72409;BME280;60402;48.082;11.628;2023-02-14T04:22:07;97135.19;;;-2.69;100.00
72409;BME280;60402;48.082;11.628;2023-02-14T04:24:32;97142.19;;;-2.71;100.00
72409;BME280;60402;48.082;11.628;2023-02-14T04:26:58;97117.56;;;-2.81;100.00
72409;BME280;60402;48.082;11.628;2023-02-14T04:32:09;97134.94;;;-2.50;100.00
72409;BME280;60402;48.082;11.628;2023-02-14T04:34:35;97127.34;;;-2.36;100.00
72409;BME280;60402;48.082;11.628;2023-02-14T04:37:01;97123.63;;;-2.22;100.00
72409;BME280;60402;48.082;11.628;2023-02-14T04:39:27;97133.78;;;-2.58;100.00
72409;BME280;60402;48.082;11.628;2023-02-14T04:41:53;97122.34;;;-2.65;100.00
72409;BME280;60402;48.082;11.628;2023-02-14T04:44:18;97129.63;;;-2.77;100.00
72409;BME280;60402;48.082;11.628;2023-02-14T04:46:43;97116.00;;;-2.65;100.00
72409;BME280;60402;48.082;11.628;2023-02-14T04:49:09;97121.50;;;-2.34;100.00
72409;BME280;60402;48.082;11.628;2023-02-14T04:51:34;97110.34;;;-2.51;100.00
72409;BME280;60402;48.082;11.628;2023-02-14T04:53:59;97113.81;;;-2.37;100.00
72409;BME280;60402;48.082;11.628;2023-02-14T04:56:25;97104.59;;;-2.64;100.00
72409;BME280;60402;48.082;11.628;2023-02-14T04:58:51;97110.22;;;-2.86;100.00
72409;BME280;60402;48.082;11.628;2023-02-14T05:01:17;97104.97;;;-2.96;100.00
72409;BME280;60402;48.082;11.628;2023-02-14T05:03:42;97098.81;;;-2.53;100.00
72409;BME280;60402;48.082;11.628;2023-02-14T05:06:07;97093.78;;;-2.83;100.00
72409;BME280;60402;48.082;11.628;2023-02-14T05:08:32;97104.94;;;-2.65;100.00
72409;BME280;60402;48.082;11.628;2023-02-14T05:10:58;97073.34;;;-2.64;100.00
72409;BME280;60402;48.082;11.628;2023-02-14T05:13:23;97113.75;;;-2.54;100.00
72409;BME280;60402;48.082;11.628;2023-02-14T05:15:48;97075.50;;;-2.92;100.00
72409;BME280;60402;48.082;11.628;2023-02-14T05:18:14;97095.47;;;-3.04;100.00
72409;BME280;60402;48.082;11.628;2023-02-14T05:20:39;97094.47;;;-3.08;100.00
72409;BME280;60402;48.082;11.628;2023-02-14T05:23:04;97072.72;;;-3.01;100.00
72409;BME280;60402;48.082;11.628;2023-02-14T05:25:31;97077.44;;;-2.62;100.00
72409;BME280;60402;48.082;11.628;2023-02-14T05:30:37;97103.81;;;-2.55;100.00
72409;BME280;60402;48.082;11.628;2023-02-14T05:33:02;97091.56;;;-2.72;100.00
72409;BME280;60402;48.082;11.628;2023-02-14T05:35:28;97088.91;;;-2.86;100.00
72409;BME280;60402;48.082;11.628;2023-02-14T05:37:53;97092.41;;;-2.63;100.00
72409;BME280;60402;48.082;11.628;2023-02-14T05:40:18;97086.63;;;-2.44;100.00
72409;BME280;60402;48.082;11.628;2023-02-14T05:42:44;97101.28;;;-2.43;100.00
72409;BME280;60402;48.082;11.628;2023-02-14T05:45:10;97102.16;;;-2.65;100.00
72409;BME280;60402;48.082;11.628;2023-02-14T05:47:36;97099.41;;;-2.65;100.00
72409;BME280;60402;48.082;11.628;2023-02-14T05:50:01;97100.50;;;-2.75;100.00
72409;BME280;60402;48.082;11.628;2023-02-14T05:52:26;97102.91;;;-2.82;100.00
72409;BME280;60402;48.082;11.628;2023-02-14T05:54:52;97086.75;;;-2.89;100.00
72409;BME280;60402;48.082;11.628;2023-02-14T05:57:17;97101.72;;;-2.90;100.00
72409;BME280;60402;48.082;11.628;2023-02-14T05:59:42;97109.94;;;-3.07;100.00
72409;BME280;60402;48.082;11.628;2023-02-14T06:02:08;97069.00;;;-3.27;100.00
72409;BME280;60402;48.082;11.628;2023-02-14T06:04:33;97094.72;;;-2.96;100.00
72409;BME280;60402;48.082;11.628;2023-02-14T06:06:58;97103.16;;;-3.01;100.00
72409;BME280;60402;48.082;11.628;2023-02-14T06:09:24;97084.13;;;-2.94;100.00
72409;BME280;60402;48.082;11.628;2023-02-14T06:11:49;97106.13;;;-2.89;100.00
72409;BME280;60402;48.082;11.628;2023-02-14T06:14:14;97103.38;;;-3.20;100.00
72409;BME280;60402;48.082;11.628;2023-02-14T06:16:40;97112.50;;;-3.11;100.00
72409;BME280;60402;48.082;11.628;2023-02-14T06:19:05;97125.16;;;-3.18;100.00
72409;BME280;60402;48.082;11.628;2023-02-14T06:21:30;97105.88;;;-3.32;100.00
72409;BME280;60402;48.082;11.628;2023-02-14T06:23:56;97119.75;;;-3.23;100.00
72409;BME280;60402;48.082;11.628;2023-02-14T06:26:21;97112.22;;;-3.09;100.00
72409;BME280;60402;48.082;11.628;2023-02-14T06:28:46;97105.75;;;-3.27;100.00
72409;BME280;60402;48.082;11.628;2023-02-14T06:31:16;97089.13;;;-3.04;100.00
72409;BME280;60402;48.082;11.628;2023-02-14T06:33:42;97137.28;;;-2.74;100.00
72409;BME280;60402;48.082;11.628;2023-02-14T06:36:08;97126.13;;;-2.92;100.00
72409;BME280;60402;48.082;11.628;2023-02-14T06:38:33;97134.06;;;-3.21;100.00
72409;BME280;60402;48.082;11.628;2023-02-14T06:41:06;97138.59;;;-3.03;100.00
72409;BME280;60402;48.082;11.628;2023-02-14T06:43:32;97147.03;;;-3.08;100.00
72409;BME280;60402;48.082;11.628;2023-02-14T06:45:57;97118.50;;;-3.17;100.00
72409;BME280;60402;48.082;11.628;2023-02-14T06:48:22;97127.84;;;-3.04;100.00
72409;BME280;60402;48.082;11.628;2023-02-14T06:50:48;97072.31;;;-3.17;100.00
72409;BME280;60402;48.082;11.628;2023-02-14T06:53:13;97112.69;;;-3.07;100.00
72409;BME280;60402;48.082;11.628;2023-02-14T06:55:39;97131.41;;;-2.81;100.00
72409;BME280;60402;48.082;11.628;2023-02-14T06:58:04;97129.88;;;-2.57;100.00
72409;BME280;60402;48.082;11.628;2023-02-14T07:00:29;97119.56;;;-2.65;100.00
72409;BME280;60402;48.082;11.628;2023-02-14T07:02:55;97136.56;;;-2.58;100.00
72409;BME280;60402;48.082;11.628;2023-02-14T07:05:21;97109.66;;;-2.66;100.00
72409;BME280;60402;48.082;11.628;2023-02-14T07:07:46;97119.69;;;-2.39;100.00
72409;BME280;60402;48.082;11.628;2023-02-14T07:10:12;97128.38;;;-2.14;100.00
72409;BME280;60402;48.082;11.628;2023-02-14T07:12:37;97131.50;;;-2.16;100.00
72409;BME280;60402;48.082;11.628;2023-02-14T07:15:07;97115.69;;;-2.15;100.00
72409;BME280;60402;48.082;11.628;2023-02-14T07:17:33;97083.53;;;-2.42;100.00
72409;BME280;60402;48.082;11.628;2023-02-14T07:19:58;97090.31;;;-2.57;100.00
72409;BME280;60402;48.082;11.628;2023-02-14T07:22:23;97129.94;;;-2.39;100.00
72409;BME280;60402;48.082;11.628;2023-02-14T07:24:48;97101.84;;;-2.15;100.00
72409;BME280;60402;48.082;11.628;2023-02-14T07:27:14;97087.19;;;-2.16;100.00
72409;BME280;60402;48.082;11.628;2023-02-14T07:29:39;97119.94;;;-2.09;100.00
72409;BME280;60402;48.082;11.628;2023-02-14T07:32:05;97105.25;;;-2.18;100.00
72409;BME280;60402;48.082;11.628;2023-02-14T07:34:30;97107.81;;;-2.39;100.00
72409;BME280;60402;48.082;11.628;2023-02-14T07:36:55;97116.38;;;-2.49;100.00
72409;BME280;60402;48.082;11.628;2023-02-14T07:39:21;97088.91;;;-2.37;100.00
72409;BME280;60402;48.082;11.628;2023-02-14T07:41:46;97118.47;;;-1.98;100.00
72409;BME280;60402;48.082;11.628;2023-02-14T07:44:11;97100.50;;;-2.35;100.00
72409;BME280;60402;48.082;11.628;2023-02-14T07:46:36;97121.22;;;-2.15;100.00
72409;BME280;60402;48.082;11.628;2023-02-14T07:49:02;97117.03;;;-1.95;100.00
72409;BME280;60402;48.082;11.628;2023-02-14T07:51:27;97110.66;;;-1.96;100.00
72409;BME280;60402;48.082;11.628;2023-02-14T07:53:52;97102.16;;;-2.65;100.00
72409;BME280;60402;48.082;11.628;2023-02-14T07:56:18;97085.56;;;-2.65;100.00
72409;BME280;60402;48.082;11.628;2023-02-14T07:58:43;97096.28;;;-2.24;100.00
72409;BME280;60402;48.082;11.628;2023-02-14T08:01:09;97099.38;;;-2.17;100.00
72409;BME280;60402;48.082;11.628;2023-02-14T08:03:34;97075.28;;;-1.99;100.00
72409;BME280;60402;48.082;11.628;2023-02-14T08:06:00;97070.09;;;-1.83;100.00
72409;BME280;60402;48.082;11.628;2023-02-14T08:08:27;97092.59;;;-1.59;100.00
72409;BME280;60402;48.082;11.628;2023-02-14T08:10:52;97079.22;;;-1.48;100.00
72409;BME280;60402;48.082;11.628;2023-02-14T08:13:18;97061.25;;;-1.42;100.00
72409;BME280;60402;48.082;11.628;2023-02-14T08:15:44;97053.25;;;-1.26;100.00
72409;BME280;60402;48.082;11.628;2023-02-14T08:18:28;97088.50;;;-1.35;100.00
72409;BME280;60402;48.082;11.628;2023-02-14T08:20:53;97077.41;;;-1.26;100.00
72409;BME280;60402;48.082;11.628;2023-02-14T08:23:19;97068.09;;;-1.22;100.00
72409;BME280;60402;48.082;11.628;2023-02-14T08:25:46;97082.47;;;-1.37;100.00
72409;BME280;60402;48.082;11.628;2023-02-14T08:28:12;97077.25;;;-1.65;100.00
72409;BME280;60402;48.082;11.628;2023-02-14T08:30:40;97077.53;;;-1.14;100.00
72409;BME280;60402;48.082;11.628;2023-02-14T08:33:07;97081.41;;;-0.89;100.00
72409;BME280;60402;48.082;11.628;2023-02-14T08:35:32;97074.63;;;-0.71;100.00
72409;BME280;60402;48.082;11.628;2023-02-14T08:37:58;97072.72;;;-0.88;100.00
72409;BME280;60402;48.082;11.628;2023-02-14T08:40:23;97094.53;;;-1.33;100.00
72409;BME280;60402;48.082;11.628;2023-02-14T08:42:49;97088.97;;;-1.94;100.00
72409;BME280;60402;48.082;11.628;2023-02-14T08:45:14;97094.78;;;-2.21;100.00
72409;BME280;60402;48.082;11.628;2023-02-14T08:47:40;97090.00;;;-1.72;100.00
72409;BME280;60402;48.082;11.628;2023-02-14T08:50:07;97087.88;;;-1.49;100.00
72409;BME280;60402;48.082;11.628;2023-02-14T08:52:33;97081.97;;;-1.57;100.00
72409;BME280;60402;48.082;11.628;2023-02-14T08:54:58;97094.16;;;-1.06;100.00
72409;BME280;60402;48.082;11.628;2023-02-14T08:57:24;97103.19;;;-1.26;100.00
72409;BME280;60402;48.082;11.628;2023-02-14T08:59:51;97087.28;;;-0.99;100.00
72409;BME280;60402;48.082;11.628;2023-02-14T09:02:16;97082.59;;;-0.61;100.00
72409;BME280;60402;48.082;11.628;2023-02-14T09:04:42;97081.72;;;-0.53;100.00
72409;BME280;60402;48.082;11.628;2023-02-14T09:07:07;97106.69;;;-0.44;100.00
72409;BME280;60402;48.082;11.628;2023-02-14T09:09:32;97102.69;;;-0.26;100.00
72409;BME280;60402;48.082;11.628;2023-02-14T09:12:02;97094.66;;;-0.57;100.00
72409;BME280;60402;48.082;11.628;2023-02-14T09:14:28;97078.75;;;-0.86;100.00
72409;BME280;60402;48.082;11.628;2023-02-14T09:16:53;97072.50;;;-0.65;100.00
72409;BME280;60402;48.082;11.628;2023-02-14T09:19:18;97079.56;;;-0.09;100.00
72409;BME280;60402;48.082;11.628;2023-02-14T09:21:44;97091.91;;;0.03;100.00
72409;BME280;60402;48.082;11.628;2023-02-14T09:24:09;97084.00;;;0.34;100.00
72409;BME280;60402;48.082;11.628;2023-02-14T09:26:34;97096.66;;;0.65;100.00
72409;BME280;60402;48.082;11.628;2023-02-14T09:29:01;97103.22;;;0.81;98.90
72409;BME280;60402;48.082;11.628;2023-02-14T09:31:26;97068.59;;;0.58;100.00
72409;BME280;60402;48.082;11.628;2023-02-14T09:33:51;97101.19;;;0.90;98.22
72409;BME280;60402;48.082;11.628;2023-02-14T09:36:17;97092.25;;;0.97;99.27
72409;BME280;60402;48.082;11.628;2023-02-14T09:38:42;97052.38;;;1.05;96.63
72409;BME280;60402;48.082;11.628;2023-02-14T09:41:11;97038.91;;;0.95;95.39
72409;BME280;60402;48.082;11.628;2023-02-14T09:43:48;97089.97;;;1.11;94.03
72409;BME280;60402;48.082;11.628;2023-02-14T09:46:17;97089.44;;;1.18;96.70
72409;BME280;60402;48.082;11.628;2023-02-14T09:48:46;97088.44;;;1.47;94.31
72409;BME280;60402;48.082;11.628;2023-02-14T09:51:14;97098.56;;;1.51;97.23
72409;BME280;60402;48.082;11.628;2023-02-14T09:53:59;97094.41;;;1.70;95.45
72409;BME280;60402;48.082;11.628;2023-02-14T09:56:34;97092.97;;;2.00;92.90
72409;BME280;60402;48.082;11.628;2023-02-14T09:59:14;97060.34;;;2.13;90.04
72409;BME280;60402;48.082;11.628;2023-02-14T10:01:49;97093.75;;;2.38;90.76
72409;BME280;60402;48.082;11.628;2023-02-14T10:04:37;97093.63;;;2.46;91.28
72409;BME280;60402;48.082;11.628;2023-02-14T10:12:28;97062.34;;;3.25;89.07
72409;BME280;60402;48.082;11.628;2023-02-14T10:14:58;97041.53;;;3.70;85.27
72409;BME280;60402;48.082;11.628;2023-02-14T10:17:54;97081.84;;;4.00;82.96
72409;BME280;60402;48.082;11.628;2023-02-14T10:20:23;97076.53;;;3.79;83.67
72409;BME280;60402;48.082;11.628;2023-02-14T10:22:58;97065.31;;;4.11;82.68
72409;BME280;60402;48.082;11.628;2023-02-14T10:25:42;97068.72;;;4.04;81.04
72409;BME280;60402;48.082;11.628;2023-02-14T10:28:12;97075.63;;;3.91;81.79
72409;BME280;60402;48.082;11.628;2023-02-14T10:30:39;97051.19;;;3.72;83.61
72409;BME280;60402;48.082;11.628;2023-02-14T10:33:15;97066.88;;;3.77;83.21
72409;BME280;60402;48.082;11.628;2023-02-14T10:41:24;97072.28;;;2.66;88.97
72409;BME280;60402;48.082;11.628;2023-02-14T10:46:44;97073.38;;;2.77;90.64
72409;BME280;60402;48.082;11.628;2023-02-14T10:52:35;97048.03;;;2.54;92.37
72409;BME280;60402;48.082;11.628;2023-02-14T10:57:43;97035.19;;;2.66;92.28
72409;BME280;60402;48.082;11.628;2023-02-14T11:00:22;97033.91;;;2.63;92.92
72409;BME280;60402;48.082;11.628;2023-02-14T11:02:51;97026.69;;;2.62;93.17
72409;BME280;60402;48.082;11.628;2023-02-14T11:08:25;97006.66;;;2.72;92.08
72409;BME280;60402;48.082;11.628;2023-02-14T11:10:53;97027.09;;;2.76;93.26
72409;BME280;60402;48.082;11.628;2023-02-14T11:13:37;97007.56;;;2.48;94.01
72409;BME280;60402;48.082;11.628;2023-02-14T11:16:11;97016.19;;;2.71;93.06
72409;BME280;60402;48.082;11.628;2023-02-14T11:18:40;96995.88;;;2.87;92.99
72409;BME280;60402;48.082;11.628;2023-02-14T11:21:15;97014.56;;;3.14;91.36
72409;BME280;60402;48.082;11.628;2023-02-14T11:23:49;96990.59;;;3.29;91.10
72409;BME280;60402;48.082;11.628;2023-02-14T11:26:25;96989.78;;;3.28;90.98
72409;BME280;60402;48.082;11.628;2023-02-14T11:28:58;96995.56;;;3.36;92.17
72409;BME280;60402;48.082;11.628;2023-02-14T11:31:35;96981.94;;;3.50;92.27
72409;BME280;60402;48.082;11.628;2023-02-14T11:36:47;96968.59;;;3.59;92.61
72409;BME280;60402;48.082;11.628;2023-02-14T11:39:27;96980.25;;;3.96;90.78
72409;BME280;60402;48.082;11.628;2023-02-14T11:41:56;96984.25;;;3.95;90.20
72409;BME280;60402;48.082;11.628;2023-02-14T11:44:24;96945.75;;;3.73;89.59
72409;BME280;60402;48.082;11.628;2023-02-14T11:46:51;96970.41;;;4.02;90.51
72409;BME280;60402;48.082;11.628;2023-02-14T11:49:32;96965.78;;;4.10;88.57
72409;BME280;60402;48.082;11.628;2023-02-14T11:52:00;96955.09;;;3.96;89.59
72409;BME280;60402;48.082;11.628;2023-02-14T11:54:35;96963.53;;;4.00;89.12
72409;BME280;60402;48.082;11.628;2023-02-14T11:57:06;96930.13;;;3.88;88.27
72409;BME280;60402;48.082;11.628;2023-02-14T11:59:40;96950.59;;;3.92;89.01
72409;BME280;60402;48.082;11.628;2023-02-14T12:04:57;96943.94;;;4.00;88.82
72409;BME280;60402;48.082;11.628;2023-02-14T12:07:28;96933.28;;;3.86;88.52
72409;BME280;60402;48.082;11.628;2023-02-14T12:13:00;96929.94;;;4.35;86.44
72409;BME280;60402;48.082;11.628;2023-02-14T12:21:18;96921.38;;;4.47;86.16
72409;BME280;60402;48.082;11.628;2023-02-14T12:26:49;96909.50;;;4.54;84.88
72409;BME280;60402;48.082;11.628;2023-02-14T12:29:34;96910.88;;;4.64;83.83
72409;BME280;60402;48.082;11.628;2023-02-14T12:34:37;96906.25;;;4.71;83.39
72409;BME280;60402;48.082;11.628;2023-02-14T12:40:27;96911.41;;;4.92;82.37
72409;BME280;60402;48.082;11.628;2023-02-14T12:43:05;96917.41;;;5.13;82.99
72409;BME280;60402;48.082;11.628;2023-02-14T12:45:58;96918.31;;;5.21;83.15
72409;BME280;60402;48.082;11.628;2023-02-14T12:51:33;96884.03;;;4.82;82.83
72409;BME280;60402;48.082;11.628;2023-02-14T12:59:57;96913.19;;;5.27;82.44
72409;BME280;60402;48.082;11.628;2023-02-14T13:13:49;96871.69;;;5.32;81.79
72409;BME280;60402;48.082;11.628;2023-02-14T13:19:28;96884.53;;;5.63;81.53
72409;BME280;60402;48.082;11.628;2023-02-14T13:21:58;96879.25;;;5.58;81.49
72409;BME280;60402;48.082;11.628;2023-02-14T13:24:28;96847.94;;;5.53;80.49
72409;BME280;60402;48.082;11.628;2023-02-14T13:26:59;96862.22;;;5.71;79.61
72409;BME280;60402;48.082;11.628;2023-02-14T13:29:36;96870.25;;;5.46;80.29
72409;BME280;60402;48.082;11.628;2023-02-14T13:32:09;96861.81;;;5.42;81.28
72409;BME280;60402;48.082;11.628;2023-02-14T13:34:47;96861.69;;;5.61;81.14
72409;BME280;60402;48.082;11.628;2023-02-14T13:37:16;96875.59;;;5.81;81.34
72409;BME280;60402;48.082;11.628;2023-02-14T13:39:46;96856.09;;;5.61;80.18
72409;BME280;60402;48.082;11.628;2023-02-14T13:48:03;96865.13;;;5.78;80.72
72409;BME280;60402;48.082;11.628;2023-02-14T13:50:31;96851.22;;;5.58;81.01
72409;BME280;60402;48.082;11.628;2023-02-14T13:52:57;96838.66;;;5.49;81.62
72409;BME280;60402;48.082;11.628;2023-02-14T13:55:25;96838.19;;;5.43;82.51
72409;BME280;60402;48.082;11.628;2023-02-14T13:58:11;96824.03;;;5.32;83.94
72409;BME280;60402;48.082;11.628;2023-02-14T14:00:41;96860.53;;;5.93;81.59
72409;BME280;60402;48.082;11.628;2023-02-14T14:06:12;96829.78;;;5.70;82.18
72409;BME280;60402;48.082;11.628;2023-02-14T14:08:41;96838.47;;;5.61;82.95
72409;BME280;60402;48.082;11.628;2023-02-14T14:18:52;96849.44;;;5.73;84.08
72409;BME280;60402;48.082;11.628;2023-02-14T14:21:26;96825.44;;;5.76;83.33
72409;BME280;60402;48.082;11.628;2023-02-14T14:26:39;96840.78;;;5.55;84.21
72409;BME280;60402;48.082;11.628;2023-02-14T14:29:24;96840.66;;;5.22;85.52
72409;BME280;60402;48.082;11.628;2023-02-14T14:31:51;96843.25;;;5.34;85.58
72409;BME280;60402;48.082;11.628;2023-02-14T14:34:21;96843.75;;;5.39;84.59
72409;BME280;60402;48.082;11.628;2023-02-14T14:36:49;96835.13;;;5.25;84.91
72409;BME280;60402;48.082;11.628;2023-02-14T14:39:26;96824.78;;;4.80;86.97
72409;BME280;60402;48.082;11.628;2023-02-14T14:41:51;96832.31;;;5.25;86.30
72409;BME280;60402;48.082;11.628;2023-02-14T14:44:17;96824.94;;;5.13;85.48
72409;BME280;60402;48.082;11.628;2023-02-14T14:46:43;96840.84;;;4.83;87.08
72409;BME280;60402;48.082;11.628;2023-02-14T14:49:09;96833.00;;;4.69;88.26
72409;BME280;60402;48.082;11.628;2023-02-14T14:51:36;96816.00;;;4.58;88.58
72409;BME280;60402;48.082;11.628;2023-02-14T14:56:47;96838.16;;;5.13;86.47
72409;BME280;60402;48.082;11.628;2023-02-14T15:02:00;96820.66;;;4.97;87.66
72409;BME280;60402;48.082;11.628;2023-02-14T15:04:26;96828.34;;;5.03;87.65
72409;BME280;60402;48.082;11.628;2023-02-14T15:06:54;96822.09;;;4.87;87.75
72409;BME280;60402;48.082;11.628;2023-02-14T15:09:30;96820.03;;;4.84;87.76
72409;BME280;60402;48.082;11.628;2023-02-14T15:11:57;96810.09;;;4.86;87.43